Time;durP1;ratioP1;P1;durP2;ratioP2;P2;SDS_P1;SDS_P2;PMS_P1;PMS_P2;Temp;Humidity;BMP_temperature;BMP_pressure;BME280_temperature;BME280_humidity;BME280_pressure;Samples;Min_cycle;Max_cycle;Signal;HPM_P1;HPM_P2
2023/10/04 00:00:24;;;;;;;2.00;0.30;;;;;;;14.69;92.44;100679.98;54948;1274;1016118;-59
2023/10/04 00:03:14;;;;;;;2.50;0.50;;;;;;;14.63;92.13;100684.93;54959;1274;1014928;-58
2023/10/04 00:05:45;;;;;;;4.10;0.50;;;;;;;14.57;92.61;100694.59;54973;1268;1016113;-59
2023/10/04 00:08:17;;;;;;;3.90;0.50;;;;;;;14.50;92.75;100699.42;54924;1274;1016226;-59
2023/10/04 00:10:49;;;;;;;4.70;0.70;;;;;;;14.44;92.73;100709.98;54915;1274;1015530;-59
2023/10/04 00:13:21;;;;;;;2.90;0.40;;;;;;;14.39;92.81;100717.30;54954;1275;1016501;-59
2023/10/04 00:15:52;;;;;;;4.10;0.70;;;;;;;14.33;92.63;100729.27;54946;1274;1016032;-59
2023/10/04 00:18:23;;;;;;;3.00;0.40;;;;;;;14.28;92.36;100738.54;54927;1274;1015822;-59
2023/10/04 00:20:55;;;;;;;4.10;0.60;;;;;;;14.24;92.67;100747.67;54945;1275;1015370;-59
2023/10/04 00:23:26;;;;;;;4.40;0.60;;;;;;;14.20;92.15;100756.36;54934;1274;1015437;-59
2023/10/04 00:25:57;;;;;;;5.00;0.30;;;;;;;14.17;92.51;100756.45;54926;1274;1016169;-59
2023/10/04 00:28:29;;;;;;;2.40;0.40;;;;;;;14.12;92.53;100756.29;54936;1274;1015834;-59
2023/10/04 00:31:01;;;;;;;5.00;0.50;;;;;;;14.10;92.44;100763.66;54926;1267;1017314;-60
2023/10/04 00:33:32;;;;;;;5.80;0.60;;;;;;;14.08;92.66;100764.52;54954;1273;1015812;-60
2023/10/04 00:36:05;;;;;;;3.60;0.40;;;;;;;14.06;92.46;100779.23;54949;1274;1015472;-61
2023/10/04 00:38:37;;;;;;;4.90;0.90;;;;;;;14.04;92.35;100781.25;54917;1274;1015570;-61
2023/10/04 00:41:11;;;;;;;6.70;0.60;;;;;;;14.03;92.53;100790.63;54936;1267;1015853;-59
2023/10/04 00:43:52;;;;;;;3.40;0.50;;;;;;;14.02;92.40;100790.87;54973;1275;1015999;-59
2023/10/04 00:46:25;;;;;;;6.50;0.70;;;;;;;13.99;92.43;100797.15;54933;1275;1015766;-61
2023/10/04 00:48:58;;;;;;;7.80;0.50;;;;;;;13.96;92.33;100798.73;54936;1275;1015497;-61
2023/10/04 00:51:35;;;;;;;9.50;1.00;;;;;;;13.93;92.21;100800.70;54938;1275;1015384;-60
2023/10/04 00:54:07;;;;;;;5.20;0.60;;;;;;;13.90;92.26;100813.70;54967;1264;1016165;-60
2023/10/04 00:56:39;;;;;;;6.90;0.70;;;;;;;13.88;92.15;100822.60;54950;1275;1015800;-60
2023/10/04 00:59:10;;;;;;;6.50;0.60;;;;;;;13.85;92.08;100827.82;54936;1275;1015696;-61
2023/10/04 01:01:41;;;;;;;7.40;1.40;;;;;;;13.83;92.18;100822.55;54935;1275;1016460;-60
2023/10/04 01:04:12;;;;;;;9.20;0.70;;;;;;;13.80;92.00;100823.94;54928;1275;1015928;-61
2023/10/04 01:06:45;;;;;;;6.70;0.70;;;;;;;13.77;91.84;100821.19;54923;1275;1015305;-61
2023/10/04 01:09:18;;;;;;;8.90;1.20;;;;;;;13.74;92.00;100830.88;54948;1275;1014612;-61
2023/10/04 01:11:49;;;;;;;8.30;1.40;;;;;;;13.72;91.73;100826.55;54950;1275;1015799;-60
2023/10/04 01:14:25;;;;;;;2.50;0.40;;;;;;;13.69;91.85;100831.20;54961;1272;1015323;-61
2023/10/04 01:16:57;;;;;;;4.70;0.70;;;;;;;13.67;91.79;100839.73;54933;1275;1016220;-61
2023/10/04 01:19:28;;;;;;;5.00;0.80;;;;;;;13.63;91.50;100845.08;54950;1274;1015609;-60
2023/10/04 01:21:59;;;;;;;6.80;0.80;;;;;;;13.61;91.47;100862.15;54950;1275;1016148;-61
2023/10/04 01:24:33;;;;;;;5.80;1.10;;;;;;;13.60;91.59;100870.19;54948;1275;1015290;-62
2023/10/04 01:27:04;;;;;;;6.20;0.70;;;;;;;13.57;91.38;100867.54;54959;1275;1016085;-61
2023/10/04 01:29:38;;;;;;;4.60;0.60;;;;;;;13.55;91.46;100871.58;54907;1274;1014311;-60
2023/10/04 01:32:09;;;;;;;5.60;0.80;;;;;;;13.52;91.39;100864.75;54940;1275;1016163;-61
2023/10/04 01:34:40;;;;;;;6.00;0.70;;;;;;;13.52;91.21;100872.45;54910;1275;1015490;-60
2023/10/04 01:37:11;;;;;;;6.60;0.60;;;;;;;13.52;91.17;100874.85;54922;1275;1015870;-61
2023/10/04 01:39:44;;;;;;;6.70;0.80;;;;;;;13.49;91.15;100868.71;54920;1275;1016168;-61
2023/10/04 01:42:15;;;;;;;4.40;0.70;;;;;;;13.44;91.04;100877.00;54946;1275;1014974;-62
2023/10/04 01:44:47;;;;;;;6.80;0.70;;;;;;;13.39;90.96;100883.81;54953;1275;1016145;-61
2023/10/04 01:47:19;;;;;;;6.90;0.80;;;;;;;13.34;90.87;100881.20;54940;1275;1014813;-60
2023/10/04 01:49:50;;;;;;;4.50;0.70;;;;;;;13.30;91.09;100879.03;54929;1275;1015659;-62
2023/10/04 01:52:21;;;;;;;10.30;0.70;;;;;;;13.27;91.07;100881.45;54941;1275;1015783;-61
2023/10/04 01:54:54;;;;;;;4.50;0.70;;;;;;;13.23;90.92;100881.55;54935;1275;1015894;-60
2023/10/04 01:57:26;;;;;;;17.90;1.20;;;;;;;13.20;91.18;100887.52;54930;1275;1016128;-61
2023/10/04 01:59:57;;;;;;;8.00;0.60;;;;;;;13.19;91.01;100896.46;54936;1275;1015379;-60
2023/10/04 02:02:28;;;;;;;4.60;0.60;;;;;;;13.15;91.10;100909.71;54910;1275;1015349;-61
2023/10/04 02:05:01;;;;;;;8.90;0.80;;;;;;;13.12;91.05;100918.05;54939;1274;1015579;-63
2023/10/04 02:07:32;;;;;;;4.70;0.50;;;;;;;13.10;91.06;100920.20;54933;1275;1014518;-61
2023/10/04 02:10:05;;;;;;;4.50;0.50;;;;;;;13.07;91.12;100920.00;54946;1275;1016049;-61
2023/10/04 02:12:36;;;;;;;8.30;0.70;;;;;;;13.06;91.19;100919.23;54936;1275;1015898;-61
2023/10/04 02:15:13;;;;;;;8.10;0.90;;;;;;;13.07;91.26;100923.67;54935;1274;1015755;-62
2023/10/04 02:17:45;;;;;;;6.80;0.60;;;;;;;13.09;91.31;100931.00;54734;1275;1224977;-60
2023/10/04 02:20:19;;;;;;;4.70;0.60;;;;;;;13.13;91.37;100925.41;54964;1275;1014379;-61
2023/10/04 02:22:50;;;;;;;10.10;0.80;;;;;;;13.14;91.16;100932.92;54909;1275;1015254;-63
2023/10/04 02:25:22;;;;;;;6.80;0.70;;;;;;;13.14;91.12;100932.42;54947;1275;1015854;-61
2023/10/04 02:27:55;;;;;;;4.30;0.50;;;;;;;13.18;91.16;100935.85;54910;1274;1015515;-61
2023/10/04 02:30:27;;;;;;;11.00;0.80;;;;;;;13.22;91.37;100930.27;54942;1275;1015565;-60
2023/10/04 02:33:00;;;;;;;7.10;0.70;;;;;;;13.24;91.01;100931.52;54936;1275;1015087;-61
2023/10/04 02:35:34;;;;;;;9.50;0.80;;;;;;;13.25;90.95;100935.39;54936;1275;1015296;-61
2023/10/04 02:38:16;;;;;;;4.30;0.70;;;;;;;13.26;91.06;100935.66;54912;1275;1015451;-60
2023/10/04 02:40:50;;;;;;;7.10;1.00;;;;;;;13.24;90.84;100938.95;54909;1275;1016026;-60
2023/10/04 02:43:22;;;;;;;5.40;0.70;;;;;;;13.23;90.48;100930.76;54935;1275;1015434;-61
2023/10/04 02:45:53;;;;;;;4.80;0.60;;;;;;;13.23;90.49;100928.92;54936;1275;1015779;-60
2023/10/04 02:48:24;;;;;;;6.60;0.80;;;;;;;13.22;90.28;100922.63;54918;1264;1015937;-59
2023/10/04 02:50:56;;;;;;;5.10;0.70;;;;;;;13.21;90.25;100921.34;54927;1274;1015561;-60
2023/10/04 02:53:28;;;;;;;11.50;1.00;;;;;;;13.20;90.18;100927.39;54935;1275;1015270;-61
2023/10/04 02:55:58;;;;;;;5.30;0.60;;;;;;;13.17;89.93;100933.55;54947;1275;1016035;-61
2023/10/04 02:58:30;;;;;;;7.70;1.00;;;;;;;13.15;89.82;100933.36;54924;1275;1015299;-61
2023/10/04 03:01:01;;;;;;;6.70;0.90;;;;;;;13.12;89.89;100939.52;54914;1274;1015624;-61
2023/10/04 03:03:33;;;;;;;9.60;0.80;;;;;;;13.08;89.69;100935.90;54949;1275;1015526;-61
2023/10/04 03:06:04;;;;;;;11.00;1.00;;;;;;;13.03;89.66;100937.48;54948;1275;1015843;-61
2023/10/04 03:08:35;;;;;;;8.40;0.80;;;;;;;13.00;89.80;100942.04;54901;1275;1015583;-61
2023/10/04 03:11:07;;;;;;;6.70;0.90;;;;;;;12.97;89.90;100947.24;54942;1275;1015944;-62
2023/10/04 03:13:38;;;;;;;4.60;0.80;;;;;;;12.94;89.88;100939.39;54954;1274;1016025;-61
2023/10/04 03:16:09;;;;;;;10.40;1.30;;;;;;;12.91;90.18;100949.67;54908;1275;1015666;-59
2023/10/04 03:18:41;;;;;;;7.60;1.80;;;;;;;12.90;90.08;100947.85;54938;1275;1016137;-61
2023/10/04 03:21:20;;;;;;;7.90;0.80;;;;;;;12.89;90.08;100950.02;54938;1275;1014780;-61
2023/10/04 03:23:54;;;;;;;11.00;1.00;;;;;;;12.89;90.43;100946.92;54966;1275;1015878;-61
2023/10/04 03:26:25;;;;;;;6.70;0.90;;;;;;;12.90;90.22;100943.27;54953;1274;1015781;-61
2023/10/04 03:28:56;;;;;;;8.00;0.90;;;;;;;12.90;90.27;100948.73;54945;1275;1015645;-61
2023/10/04 03:31:27;;;;;;;9.80;0.90;;;;;;;12.89;90.27;100951.27;54940;1275;1015744;-61
2023/10/04 03:33:59;;;;;;;8.30;1.20;;;;;;;12.90;90.16;100958.63;54907;1275;1016123;-61
2023/10/04 03:36:34;;;;;;;7.70;0.80;;;;;;;12.91;90.20;100961.34;54964;1275;1015353;-59
2023/10/04 03:39:09;;;;;;;7.00;0.90;;;;;;;12.89;90.11;100967.55;54930;1274;1016268;-63
2023/10/04 03:41:42;;;;;;;4.00;0.80;;;;;;;12.89;90.29;100978.98;54939;1275;1016042;-59
2023/10/04 03:44:13;;;;;;;7.50;0.80;;;;;;;12.88;90.07;100979.90;54943;1275;1016123;-64
2023/10/04 03:46:44;;;;;;;6.70;0.90;;;;;;;12.87;90.14;100985.71;54912;1275;1016157;-60
2023/10/04 03:49:19;;;;;;;6.70;0.70;;;;;;;12.87;90.33;100980.90;54921;1269;1015370;-59
2023/10/04 03:51:51;;;;;;;12.10;1.30;;;;;;;12.87;90.31;100980.48;54939;1274;1016248;-60
2023/10/04 03:54:22;;;;;;;11.30;1.20;;;;;;;12.87;90.13;100986.27;54909;1274;1015816;-60
2023/10/04 03:56:53;;;;;;;7.00;0.80;;;;;;;12.89;90.18;100988.70;54956;1267;1016299;-59
2023/10/04 03:59:24;;;;;;;3.70;0.80;;;;;;;12.91;90.12;100997.31;54921;1275;1015823;-64
2023/10/04 04:01:55;;;;;;;10.00;1.30;;;;;;;12.90;90.07;101002.28;54895;1274;1015353;-59
2023/10/04 04:04:26;;;;;;;8.10;0.90;;;;;;;12.90;89.94;101005.09;54905;1275;1015359;-58
2023/10/04 04:07:02;;;;;;;8.60;0.80;;;;;;;12.90;90.08;101006.52;54901;1267;1015555;-59
2023/10/04 04:09:34;;;;;;;9.80;1.00;;;;;;;12.91;89.98;101007.13;54896;1272;1016382;-58
2023/10/04 04:12:05;;;;;;;6.10;0.80;;;;;;;12.90;90.01;101008.13;54906;1267;1015435;-60
2023/10/04 04:14:43;;;;;;;8.00;1.50;;;;;;;12.91;90.00;101013.36;54945;1275;1016224;-57
2023/10/04 04:17:18;;;;;;;13.70;0.80;;;;;;;12.92;90.00;101020.15;54934;1274;1015941;-58
2023/10/04 04:19:52;;;;;;;5.90;1.10;;;;;;;12.89;89.65;101023.39;54947;1275;1015825;-59
2023/10/04 04:22:28;;;;;;;6.20;0.80;;;;;;;12.87;89.85;101030.34;54930;1275;1016573;-57
2023/10/04 04:25:00;;;;;;;9.20;0.90;;;;;;;12.85;89.80;101040.48;54893;1267;1015301;-54
2023/10/04 04:27:31;;;;;;;7.20;1.00;;;;;;;12.83;89.97;101048.73;54912;1273;1015668;-57
2023/10/04 04:30:05;;;;;;;6.30;0.90;;;;;;;12.81;89.94;101047.66;54870;1275;1015886;-57
2023/10/04 04:32:36;;;;;;;8.70;0.90;;;;;;;12.80;89.85;101052.34;54921;1275;1015919;-57
2023/10/04 04:35:10;;;;;;;9.50;0.70;;;;;;;12.81;89.75;101056.23;54937;1275;1015980;-56
2023/10/04 04:37:40;;;;;;;8.70;0.70;;;;;;;12.80;89.60;101058.52;54898;1275;1015555;-57
2023/10/04 04:40:23;;;;;;;8.80;1.00;;;;;;;12.79;89.59;101056.38;54918;1273;1015252;-57
2023/10/04 04:43:01;;;;;;;14.60;0.90;;;;;;;12.79;89.51;101059.98;54916;1267;1015778;-57
2023/10/04 04:45:33;;;;;;;8.70;1.20;;;;;;;12.78;89.50;101054.73;54921;1274;1015346;-56
2023/10/04 04:48:05;;;;;;;5.00;0.60;;;;;;;12.75;89.44;101055.79;54933;1275;1015449;-57
2023/10/04 04:50:36;;;;;;;7.20;1.00;;;;;;;12.74;89.59;101062.70;54915;1275;1015751;-57
2023/10/04 04:53:14;;;;;;;7.50;0.80;;;;;;;12.75;89.75;101059.14;54923;1275;1014991;-56
2023/10/04 04:55:45;;;;;;;6.00;0.50;;;;;;;12.74;89.32;101063.21;54889;1275;1015743;-56
2023/10/04 04:58:18;;;;;;;7.80;0.70;;;;;;;12.71;89.33;101069.98;54933;1275;1015597;-56
2023/10/04 05:00:50;;;;;;;7.50;0.80;;;;;;;12.69;89.40;101068.80;54932;1274;1015494;-56
2023/10/04 05:03:21;;;;;;;5.80;0.70;;;;;;;12.71;89.59;101065.74;54904;1267;1016127;-55
2023/10/04 05:05:55;;;;;;;13.40;1.30;;;;;;;12.71;89.22;101056.61;54953;1274;1015440;-56
2023/10/04 05:08:27;;;;;;;10.60;1.00;;;;;;;12.71;89.21;101059.36;54942;1272;1016306;-55
2023/10/04 05:10:59;;;;;;;6.10;0.80;;;;;;;12.71;89.32;101064.87;54915;1274;1016000;-56
2023/10/04 05:13:30;;;;;;;9.90;0.80;;;;;;;12.72;89.11;101066.52;54966;1274;1015693;-56
2023/10/04 05:16:01;;;;;;;14.70;1.70;;;;;;;12.72;88.94;101069.08;54923;1275;1015941;-56
2023/10/04 05:18:32;;;;;;;9.20;1.10;;;;;;;12.71;89.12;101072.96;54930;1274;1015657;-57
2023/10/04 05:21:05;;;;;;;4.90;0.70;;;;;;;12.70;89.08;101079.07;54942;1275;1016186;-57
2023/10/04 05:23:36;;;;;;;6.50;0.80;;;;;;;12.68;88.80;101084.45;54941;1275;1015727;-60
2023/10/04 05:26:11;;;;;;;12.40;1.20;;;;;;;12.66;88.41;101082.82;54929;1273;1014640;-59
2023/10/04 05:28:42;;;;;;;9.80;0.90;;;;;;;12.64;88.46;101084.25;54929;1275;1015267;-59
2023/10/04 05:31:13;;;;;;;8.80;1.00;;;;;;;12.62;88.66;101081.25;54904;1260;1015942;-57
2023/10/04 05:33:44;;;;;;;7.40;0.90;;;;;;;12.61;88.56;101084.42;54946;1275;1015310;-58
2023/10/04 05:36:17;;;;;;;5.80;0.60;;;;;;;12.60;88.37;101091.03;54921;1275;1016208;-56
2023/10/04 05:38:48;;;;;;;7.40;0.70;;;;;;;12.59;88.50;101092.59;54946;1275;1016210;-56
2023/10/04 05:41:20;;;;;;;9.30;0.70;;;;;;;12.58;88.42;101096.55;54934;1274;1015642;-57
2023/10/04 05:43:51;;;;;;;6.10;0.80;;;;;;;12.59;88.61;101102.60;54929;1275;1015661;-58
2023/10/04 05:46:22;;;;;;;5.30;0.60;;;;;;;12.60;88.42;101101.17;54897;1275;1015921;-56
2023/10/04 05:48:53;;;;;;;10.50;0.60;;;;;;;12.58;88.32;101105.25;54929;1267;1015819;-59
2023/10/04 05:51:24;;;;;;;4.90;0.60;;;;;;;12.60;88.40;101103.92;54901;1275;1016160;-57
2023/10/04 05:53:55;;;;;;;8.10;0.80;;;;;;;12.59;88.20;101107.47;54917;1274;1016010;-59
2023/10/04 05:56:27;;;;;;;6.00;0.70;;;;;;;12.60;88.34;101112.08;54932;1275;1016078;-58
2023/10/04 05:59:00;;;;;;;4.60;0.60;;;;;;;12.60;88.12;101118.54;54920;1275;1015479;-55
2023/10/04 06:01:34;;;;;;;6.00;0.60;;;;;;;12.59;88.19;101122.04;54918;1275;1015981;-59
2023/10/04 06:04:05;;;;;;;9.40;0.80;;;;;;;12.58;88.10;101124.40;54934;1275;1015904;-59
2023/10/04 06:06:36;;;;;;;6.60;0.80;;;;;;;12.58;87.97;101133.26;54906;1275;1014940;-58
2023/10/04 06:09:09;;;;;;;9.10;1.30;;;;;;;12.59;87.95;101138.28;54903;1274;1016011;-58
2023/10/04 06:11:40;;;;;;;6.20;0.90;;;;;;;12.60;87.79;101142.16;54907;1272;1015670;-58
2023/10/04 06:14:11;;;;;;;9.50;1.00;;;;;;;12.61;88.21;101142.52;54940;1275;1015369;-59
2023/10/04 06:16:42;;;;;;;6.50;1.60;;;;;;;12.62;88.07;101141.51;54900;1275;1015742;-58
2023/10/04 06:19:13;;;;;;;8.20;0.70;;;;;;;12.64;88.20;101143.48;54915;1275;1016314;-57
2023/10/04 06:21:48;;;;;;;4.40;0.70;;;;;;;12.66;88.34;101146.81;54920;1275;1016555;-58
2023/10/04 06:24:19;;;;;;;5.50;0.60;;;;;;;12.70;88.23;101148.27;54925;1275;1015562;-58
2023/10/04 06:26:50;;;;;;;10.70;0.70;;;;;;;12.74;88.41;101148.15;54920;1274;1016127;-58
2023/10/04 06:29:21;;;;;;;4.40;0.80;;;;;;;12.77;88.29;101147.13;54919;1267;1016249;-58
2023/10/04 06:31:53;;;;;;;9.10;0.70;;;;;;;12.80;88.04;101151.95;54903;1274;1016220;-61
2023/10/04 06:34:24;;;;;;;10.40;0.80;;;;;;;12.82;87.72;101153.70;54881;1275;1015640;-57
2023/10/04 06:36:57;;;;;;;6.40;0.80;;;;;;;12.83;87.51;101150.24;54927;1274;1015557;-58
2023/10/04 06:39:29;;;;;;;5.40;0.80;;;;;;;12.88;87.63;101161.10;54901;1274;1014707;-58
2023/10/04 06:42:00;;;;;;;8.60;0.80;;;;;;;12.92;87.18;101159.62;54946;1267;1015799;-56
2023/10/04 06:44:31;;;;;;;6.70;0.80;;;;;;;12.96;87.19;101163.42;54929;1274;1016323;-57
2023/10/04 06:47:01;;;;;;;6.00;0.60;;;;;;;13.00;87.21;101165.92;54950;1274;1016208;-58
2023/10/04 06:49:34;;;;;;;6.80;0.60;;;;;;;13.05;86.77;101164.76;54925;1266;1016229;-57
2023/10/04 06:52:05;;;;;;;7.60;0.80;;;;;;;13.11;86.29;101170.70;54942;1275;1015421;-58
2023/10/04 06:54:36;;;;;;;8.40;0.90;;;;;;;13.16;86.15;101167.36;54909;1274;1015931;-55
2023/10/04 06:57:08;;;;;;;8.70;0.90;;;;;;;13.22;85.99;101173.91;54931;1274;1015668;-58
2023/10/04 06:59:39;;;;;;;5.90;0.60;;;;;;;13.26;86.07;101175.91;54898;1275;1016023;-57
2023/10/04 07:02:10;;;;;;;7.60;0.80;;;;;;;13.32;85.64;101171.17;54899;1274;1015846;-57
2023/10/04 07:04:42;;;;;;;9.30;0.90;;;;;;;13.38;85.83;101173.50;54930;1274;1016058;-59
2023/10/04 07:07:14;;;;;;;7.80;0.80;;;;;;;13.43;85.56;101174.30;54895;1275;1015689;-59
2023/10/04 07:09:46;;;;;;;5.20;0.50;;;;;;;13.49;85.23;101169.73;54936;1275;1016363;-58
2023/10/04 07:12:18;;;;;;;5.30;0.60;;;;;;;13.55;84.95;101171.91;54935;1275;1015781;-57
2023/10/04 07:14:49;;;;;;;3.90;0.70;;;;;;;13.60;84.90;101169.23;54928;1267;1015552;-54
2023/10/04 07:17:20;;;;;;;7.80;1.00;;;;;;;13.66;84.50;101167.34;54920;1275;1016025;-57
2023/10/04 07:19:51;;;;;;;6.00;0.60;;;;;;;13.71;84.23;101181.80;54903;1267;1016208;-55
2023/10/04 07:22:29;;;;;;;6.30;0.70;;;;;;;13.78;84.15;101176.67;54916;1275;1016033;-58
2023/10/04 07:25:01;;;;;;;6.30;0.80;;;;;;;13.86;83.59;101176.27;54955;1275;1015642;-59
2023/10/04 07:27:32;;;;;;;6.80;0.60;;;;;;;13.91;83.32;101174.80;54951;1275;1015578;-58
2023/10/04 07:30:04;;;;;;;8.80;0.60;;;;;;;13.97;83.20;101174.55;54919;1274;1015961;-60
2023/10/04 07:32:35;;;;;;;6.10;0.60;;;;;;;14.03;82.46;101175.30;54932;1274;1015318;-58
2023/10/04 07:35:08;;;;;;;5.10;0.70;;;;;;;14.08;82.44;101175.76;54932;1274;1015948;-56
2023/10/04 07:37:39;;;;;;;7.80;0.90;;;;;;;14.14;82.42;101175.77;54901;1274;1015424;-58
2023/10/04 07:40:14;;;;;;;9.00;0.80;;;;;;;14.19;81.55;101187.42;54942;1274;1015536;-58
2023/10/04 07:42:46;;;;;;;6.40;0.60;;;;;;;14.23;81.41;101183.05;54910;1274;1016255;-58
2023/10/04 07:45:18;;;;;;;4.60;0.70;;;;;;;14.26;81.10;101189.17;54940;1275;1015524;-59
2023/10/04 07:47:49;;;;;;;6.50;0.70;;;;;;;14.31;80.86;101187.40;54951;1274;1016058;-59
2023/10/04 07:50:24;;;;;;;5.10;0.50;;;;;;;14.37;80.55;101193.04;54901;1274;1015894;-58
2023/10/04 07:52:58;;;;;;;9.50;0.80;;;;;;;14.40;80.31;101194.39;54928;1272;1015976;-57
2023/10/04 07:55:29;;;;;;;2.80;0.50;;;;;;;14.45;80.36;101188.20;54960;1274;1015673;-58
2023/10/04 07:58:03;;;;;;;6.70;0.60;;;;;;;14.49;80.10;101187.75;54923;1274;1015480;-55
2023/10/04 08:00:36;;;;;;;4.30;0.60;;;;;;;14.55;79.43;101192.82;54911;1274;1016114;-59
2023/10/04 08:03:08;;;;;;;9.90;0.90;;;;;;;14.57;79.45;101193.46;54934;1275;1015557;-59
2023/10/04 08:05:40;;;;;;;5.00;0.60;;;;;;;14.60;79.41;101195.14;54954;1274;1015508;-57
2023/10/04 08:08:11;;;;;;;4.80;0.50;;;;;;;14.62;79.57;101196.82;54933;1274;1015877;-59
2023/10/04 08:10:42;;;;;;;3.30;0.50;;;;;;;14.68;79.48;101197.27;54937;1274;1015987;-57
2023/10/04 08:13:13;;;;;;;4.70;0.70;;;;;;;14.74;78.57;101191.56;54152;1259;1016074;-57
2023/10/04 08:15:46;;;;;;;9.40;0.60;;;;;;;14.81;78.80;101198.23;54934;1274;1015609;-59
2023/10/04 08:18:17;;;;;;;5.90;1.00;;;;;;;14.87;78.50;101195.50;54941;1274;1015971;-58
2023/10/04 08:20:48;;;;;;;7.70;0.60;;;;;;;14.92;77.78;101195.30;54904;1275;1016307;-56
2023/10/04 08:23:21;;;;;;;3.10;0.50;;;;;;;14.99;77.80;101190.64;54941;1275;1016133;-57
2023/10/04 08:25:52;;;;;;;10.00;0.50;;;;;;;15.08;78.04;101193.67;54943;1274;1015196;-56
2023/10/04 08:28:23;;;;;;;7.80;0.70;;;;;;;15.21;77.81;101194.19;54942;1275;1015618;-57
2023/10/04 08:30:55;;;;;;;3.80;0.60;;;;;;;15.31;76.85;101190.96;54938;1274;1015810;-56
2023/10/04 08:33:31;;;;;;;6.40;0.60;;;;;;;15.38;76.09;101186.65;54950;1274;1015541;-57
2023/10/04 08:36:09;;;;;;;5.40;0.70;;;;;;;15.46;76.21;101185.52;54948;1267;1015402;-56
2023/10/04 08:38:41;;;;;;;7.50;0.70;;;;;;;15.53;75.62;101183.93;54944;1267;1016649;-57
2023/10/04 08:41:13;;;;;;;10.10;0.70;;;;;;;15.62;75.68;101185.43;54913;1275;1015057;-57
2023/10/04 08:43:44;;;;;;;6.50;0.60;;;;;;;15.69;74.99;101187.98;54949;1274;1015875;-57
2023/10/04 08:46:20;;;;;;;7.10;0.50;;;;;;;15.75;74.81;101189.81;54950;1274;1015828;-57
2023/10/04 08:48:54;;;;;;;4.10;0.50;;;;;;;15.78;74.39;101192.10;54933;1275;1015971;-57
2023/10/04 08:51:43;;;;;;;4.70;0.70;;;;;;;15.79;73.72;101194.77;54942;1274;1015647;-56
2023/10/04 08:54:21;;;;;;;5.10;0.40;;;;;;;15.82;73.40;101186.96;54946;1275;1015303;-56
2023/10/04 08:56:57;;;;;;;4.40;0.50;;;;;;;15.84;73.49;101195.05;54928;1274;1016015;-57
2023/10/04 08:59:29;;;;;;;2.00;0.40;;;;;;;15.86;73.33;101197.02;54924;1275;1015704;-55
2023/10/04 09:02:07;;;;;;;4.60;0.60;;;;;;;15.88;72.60;101181.63;54945;1275;1015665;-57
2023/10/04 09:04:39;;;;;;;4.20;0.50;;;;;;;15.88;72.76;101189.77;54943;1275;1015562;-56
2023/10/04 09:07:11;;;;;;;8.40;0.70;;;;;;;15.91;72.38;101185.95;54920;1274;1015559;-57
2023/10/04 09:09:45;;;;;;;7.40;0.60;;;;;;;15.92;71.97;101188.73;54919;1274;1015267;-57
2023/10/04 09:12:17;;;;;;;8.60;0.80;;;;;;;15.98;72.50;101190.18;54943;1274;1015598;-56
2023/10/04 09:14:49;;;;;;;4.70;0.60;;;;;;;16.03;72.45;101187.20;54938;1274;1015176;-54
2023/10/04 09:17:24;;;;;;;6.10;0.90;;;;;;;16.12;71.80;101198.41;54937;1274;1016215;-57
2023/10/04 09:19:59;;;;;;;6.00;0.40;;;;;;;16.13;70.63;101196.89;54935;1275;1015965;-57
2023/10/04 09:22:33;;;;;;;3.30;0.50;;;;;;;16.13;70.32;101191.96;54956;1267;1015950;-56
2023/10/04 09:25:04;;;;;;;4.60;0.40;;;;;;;16.14;70.88;101193.40;54925;1268;1015729;-57
2023/10/04 09:27:36;;;;;;;6.80;0.60;;;;;;;16.15;70.62;101197.77;54954;1274;1015241;-57
2023/10/04 09:33:07;;;;;;;9.00;0.80;;;;;;;16.16;70.10;101199.23;103581;1297;544999;-55
2023/10/04 09:35:45;;;;;;;7.00;0.50;;;;;;;16.16;69.74;101201.83;109762;1278;22149;-56
2023/10/04 09:38:21;;;;;;;6.10;0.50;;;;;;;16.15;69.83;101202.08;109751;1273;22145;-56
2023/10/04 09:40:56;;;;;;;6.60;0.60;;;;;;;16.16;69.85;101199.98;109923;1274;22306;-56
2023/10/04 09:43:35;;;;;;;4.20;0.40;;;;;;;16.15;69.91;101204.18;109882;1282;22130;-56
2023/10/04 09:46:09;;;;;;;4.60;0.60;;;;;;;16.16;69.57;101205.73;109709;1280;254918;-56
2023/10/04 09:48:43;;;;;;;4.60;0.60;;;;;;;16.15;69.56;101204.28;110018;1280;22421;-57
2023/10/04 09:51:15;;;;;;;7.50;0.50;;;;;;;16.14;69.47;101205.03;109997;1275;22877;-53
2023/10/04 09:53:46;;;;;;;10.50;0.90;;;;;;;16.14;69.51;101201.86;110039;1280;22412;-57
2023/10/04 09:56:18;;;;;;;7.70;0.80;;;;;;;16.14;69.27;101198.84;110045;1280;23392;-56
2023/10/04 09:58:53;;;;;;;9.60;0.90;;;;;;;16.15;69.03;101198.95;110018;1280;22170;-57
2023/10/04 10:01:26;;;;;;;7.90;1.10;;;;;;;16.16;68.71;101202.60;110008;1280;22208;-58
2023/10/04 10:03:59;;;;;;;5.20;0.60;;;;;;;16.14;68.46;101197.86;110014;1280;22822;-57
2023/10/04 10:06:34;;;;;;;10.70;0.70;;;;;;;16.16;68.69;101195.52;110035;1274;22150;-57
2023/10/04 10:09:08;;;;;;;6.90;0.90;;;;;;;16.16;68.47;101197.69;110016;1272;22955;-56
2023/10/04 10:11:40;;;;;;;6.60;0.50;;;;;;;16.17;68.15;101195.45;110028;1280;22158;-57
2023/10/04 10:14:14;;;;;;;6.00;0.70;;;;;;;16.18;67.97;101197.66;110054;1280;22326;-56
2023/10/04 10:16:45;;;;;;;4.20;0.90;;;;;;;16.20;68.15;101198.09;110034;1280;22197;-56
2023/10/04 10:19:16;;;;;;;6.60;1.30;;;;;;;16.22;68.12;101194.69;110019;1280;22933;-56
2023/10/04 10:22:05;;;;;;;11.10;1.00;;;;;;;16.24;68.09;101190.40;110040;1280;22288;-57
2023/10/04 10:24:44;;;;;;;4.40;0.50;;;;;;;16.24;67.54;101191.77;110034;1280;22215;-57
2023/10/04 10:27:19;;;;;;;10.00;0.90;;;;;;;16.24;67.86;101193.11;110050;1280;22178;-59
2023/10/04 10:29:53;;;;;;;9.60;0.60;;;;;;;16.26;67.31;101195.23;110034;1274;22427;-57
2023/10/04 10:32:25;;;;;;;7.90;0.80;;;;;;;16.25;67.05;101186.60;110034;1280;22181;-59
2023/10/04 10:35:03;;;;;;;7.40;0.80;;;;;;;16.25;67.43;101183.64;110036;1267;22203;-58
2023/10/04 10:37:38;;;;;;;6.00;0.80;;;;;;;16.27;67.04;101183.05;110025;1280;22147;-56
2023/10/04 10:40:37;;;;;;;5.20;0.80;;;;;;;16.28;67.05;101188.91;110012;1275;22225;-59
2023/10/04 10:43:14;;;;;;;4.00;0.50;;;;;;;16.31;66.94;101195.44;109982;1280;23038;-60
2023/10/04 10:45:45;;;;;;;4.40;0.70;;;;;;;16.32;66.73;101192.64;109970;1280;22234;-60
2023/10/04 10:48:16;;;;;;;6.40;0.80;;;;;;;16.32;66.70;101194.23;109966;1280;23567;-61
2023/10/04 10:50:48;;;;;;;6.50;0.70;;;;;;;16.33;66.54;101191.67;109999;1275;22368;-57
2023/10/04 10:53:19;;;;;;;6.70;0.70;;;;;;;16.35;66.85;101186.63;109946;1273;23092;-57
2023/10/04 10:55:54;;;;;;;9.70;0.90;;;;;;;16.38;66.73;101186.80;110006;1280;22395;-57
2023/10/04 10:58:26;;;;;;;6.60;0.70;;;;;;;16.40;66.87;101184.06;106282;1280;22546;-56
2023/10/04 11:00:57;;;;;;;6.60;0.70;;;;;;;16.44;66.98;101182.52;109988;1268;22468;-57
2023/10/04 11:03:29;;;;;;;4.60;0.70;;;;;;;16.47;66.87;101176.45;109948;1280;22392;-57
2023/10/04 11:06:00;;;;;;;3.70;0.70;;;;;;;16.51;66.62;101175.12;109970;1275;22409;-55
2023/10/04 11:08:32;;;;;;;4.30;0.60;;;;;;;16.52;66.54;101173.10;109957;1280;22193;-55
2023/10/04 11:11:04;;;;;;;6.70;0.80;;;;;;;16.55;67.00;101176.39;109999;1280;22165;-57
2023/10/04 11:13:34;;;;;;;7.00;0.70;;;;;;;16.58;66.78;101175.52;109988;1280;22179;-55
2023/10/04 11:16:08;;;;;;;6.10;0.80;;;;;;;16.60;66.20;101175.08;109956;1280;22999;-61
2023/10/04 11:18:39;;;;;;;6.40;0.70;;;;;;;16.62;66.10;101172.73;109956;1278;23187;-59
2023/10/04 11:21:10;;;;;;;5.20;0.80;;;;;;;16.63;65.57;101177.34;109985;1278;22314;-56
2023/10/04 11:23:42;;;;;;;9.20;0.80;;;;;;;16.62;65.69;101177.86;107058;1277;22790;-59
2023/10/04 11:26:13;;;;;;;8.30;0.80;;;;;;;16.62;65.72;101180.46;110004;1280;22451;-57
2023/10/04 11:28:46;;;;;;;9.40;0.80;;;;;;;16.63;65.57;101181.14;109995;1280;22924;-56
2023/10/04 11:31:18;;;;;;;5.60;0.70;;;;;;;16.63;65.46;101181.14;109971;1275;22180;-56
2023/10/04 11:33:55;;;;;;;4.60;1.00;;;;;;;16.63;65.52;101177.55;109949;1278;22362;-58
2023/10/04 11:36:27;;;;;;;4.50;0.60;;;;;;;16.65;65.81;101177.52;109984;1280;22352;-56